Time;durP1;ratioP1;P1;durP2;ratioP2;P2;SDS_P1;SDS_P2;PMS_P1;PMS_P2;Temp;Humidity;BMP_temperature;BMP_pressure;BME280_temperature;BME280_humidity;BME280_pressure;Samples;Min_cycle;Max_cycle;Signal;HPM_P1;HPM_P2
2023/11/13 00:01:14;;;;;;;9.32;2.60;;;2.30;99.90;;;;;;5081661;28;20079;-60
2023/11/13 00:03:40;;;;;;;5.45;2.95;;;2.20;99.90;;;;;;5082934;28;20163;-57
2023/11/13 00:06:06;;;;;;;4.03;2.13;;;2.20;99.90;;;;;;5081939;28;20041;-58
2023/11/13 00:08:32;;;;;;;8.80;2.25;;;2.20;99.90;;;;;;5097297;28;20100;-57
2023/11/13 00:10:58;;;;;;;8.57;2.20;;;2.20;99.90;;;;;;5078654;28;20429;-54
2023/11/13 00:13:23;;;;;;;6.47;2.08;;;2.20;99.90;;;;;;5084139;28;20511;-56
2023/11/13 00:15:49;;;;;;;7.80;2.53;;;2.30;99.90;;;;;;5087213;28;20047;-57
2023/11/13 00:18:15;;;;;;;9.80;2.30;;;2.40;99.90;;;;;;5072162;28;20450;-58
2023/11/13 00:20:41;;;;;;;6.78;2.60;;;2.40;99.90;;;;;;5069286;28;20075;-62
2023/11/13 00:23:06;;;;;;;6.57;2.60;;;2.50;99.90;;;;;;5070258;28;20033;-61
2023/11/13 00:25:32;;;;;;;11.75;2.78;;;2.50;99.90;;;;;;5075806;28;20044;-61
2023/11/13 00:27:58;;;;;;;5.60;2.25;;;2.50;99.90;;;;;;5073625;28;20066;-59
2023/11/13 00:30:24;;;;;;;3.60;1.85;;;2.50;99.90;;;;;;5076161;28;20067;-59
2023/11/13 00:32:49;;;;;;;7.50;1.92;;;2.50;99.90;;;;;;5067860;28;20089;-58
2023/11/13 00:35:15;;;;;;;4.78;2.20;;;2.40;99.90;;;;;;5074868;28;20047;-59
2023/11/13 00:37:41;;;;;;;4.75;1.92;;;2.40;99.90;;;;;;5070044;28;20421;-58
2023/11/13 00:40:07;;;;;;;4.78;1.92;;;2.40;99.90;;;;;;5069927;28;20538;-58
2023/11/13 00:42:33;;;;;;;7.50;1.98;;;2.40;99.90;;;;;;5065615;28;20528;-61
2023/11/13 00:44:59;;;;;;;8.63;1.52;;;2.40;99.90;;;;;;5070294;28;20072;-61
2023/11/13 00:47:25;;;;;;;5.18;2.00;;;2.50;99.90;;;;;;5067676;28;20037;-61
2023/11/13 00:49:51;;;;;;;6.35;1.35;;;2.40;99.90;;;;;;5069457;28;20044;-59
2023/11/13 00:52:16;;;;;;;3.35;1.35;;;2.40;99.90;;;;;;5067605;28;20052;-61
2023/11/13 00:54:42;;;;;;;4.93;1.67;;;2.40;99.90;;;;;;5069344;28;20032;-60
2023/11/13 00:57:08;;;;;;;4.63;1.52;;;2.40;99.90;;;;;;5067558;28;20052;-55
2023/11/13 00:59:34;;;;;;;3.15;1.50;;;2.40;99.90;;;;;;5068414;28;20056;-61
2023/11/13 01:02:01;;;;;;;5.72;1.38;;;2.30;99.90;;;;;;5065703;28;20044;-61
2023/11/13 01:04:27;;;;;;;3.15;1.50;;;2.30;99.90;;;;;;5072124;28;20049;-60
2023/11/13 01:06:56;;;;;;;5.65;1.40;;;2.30;99.90;;;;;;5069192;28;20037;-60
2023/11/13 01:09:22;;;;;;;7.00;1.63;;;2.40;99.90;;;;;;5079363;28;20036;-61
2023/11/13 01:11:52;;;;;;;6.63;2.63;;;2.40;99.90;;;;;;5075058;28;20661;-56
2023/11/13 01:14:19;;;;;;;6.25;1.27;;;2.40;99.90;;;;;;5066736;28;20041;-59
2023/11/13 01:16:45;;;;;;;8.70;1.77;;;2.40;99.90;;;;;;5074516;28;20044;-61
2023/11/13 01:19:10;;;;;;;3.00;1.08;;;2.50;99.90;;;;;;5069075;28;20055;-59
2023/11/13 01:21:37;;;;;;;3.22;1.25;;;2.50;99.90;;;;;;5071323;28;20041;-60
2023/11/13 01:24:03;;;;;;;3.53;1.70;;;2.60;99.90;;;;;;5075106;28;20099;-57
2023/11/13 01:26:28;;;;;;;3.00;1.73;;;2.70;99.90;;;;;;5070819;28;20748;-60
2023/11/13 01:28:54;;;;;;;2.60;1.52;;;2.80;99.90;;;;;;5073747;28;20500;-60
2023/11/13 01:31:19;;;;;;;2.63;1.60;;;2.80;99.90;;;;;;5072434;28;20036;-54
2023/11/13 01:33:45;;;;;;;4.95;2.17;;;2.80;99.90;;;;;;5087934;28;20036;-55
2023/11/13 01:36:10;;;;;;;4.93;1.67;;;2.90;99.90;;;;;;5079040;28;20100;-59
2023/11/13 01:38:36;;;;;;;3.13;1.55;;;2.90;99.90;;;;;;5067881;28;20051;-58
2023/11/13 01:41:02;;;;;;;3.03;1.70;;;3.00;99.90;;;;;;5078009;28;20064;-59
2023/11/13 01:43:27;;;;;;;4.00;1.48;;;3.10;99.90;;;;;;5069853;28;20119;-61
2023/11/13 01:45:56;;;;;;;3.00;1.50;;;3.10;99.90;;;;;;5070818;28;20040;-61
2023/11/13 01:48:23;;;;;;;2.05;1.60;;;3.10;99.90;;;;;;5066425;28;20119;-60
2023/11/13 01:50:50;;;;;;;4.15;1.55;;;3.20;99.90;;;;;;5076923;28;20391;-60
2023/11/13 01:53:21;;;;;;;3.17;1.70;;;3.20;99.90;;;;;;5066312;28;20040;-56
2023/11/13 01:55:48;;;;;;;2.15;1.38;;;3.30;99.90;;;;;;5072232;28;20052;-59
2023/11/13 01:58:15;;;;;;;3.25;1.80;;;3.30;99.90;;;;;;5072751;28;20086;-58
2023/11/13 02:00:41;;;;;;;3.83;1.65;;;3.40;99.90;;;;;;5066594;28;20064;-55
2023/11/13 02:03:08;;;;;;;4.20;2.10;;;3.40;99.90;;;;;;5065826;28;20048;-60
2023/11/13 02:05:34;;;;;;;3.75;2.38;;;3.50;99.90;;;;;;5075045;28;20097;-61
2023/11/13 02:08:00;;;;;;;4.40;2.30;;;3.50;99.90;;;;;;5066289;28;20124;-61
2023/11/13 02:10:28;;;;;;;4.47;2.10;;;3.60;99.90;;;;;;5069449;28;20141;-59
2023/11/13 02:12:54;;;;;;;3.45;2.00;;;3.60;99.90;;;;;;5066487;28;20040;-62
2023/11/13 02:15:20;;;;;;;5.30;2.58;;;3.60;99.90;;;;;;5068093;28;20035;-61
2023/11/13 02:18:02;;;;;;;4.00;2.50;;;3.70;99.90;;;;;;5066378;28;20047;-61
2023/11/13 02:20:29;;;;;;;4.10;2.28;;;3.70;99.90;;;;;;5068772;28;20048;-59
2023/11/13 02:22:55;;;;;;;3.55;2.30;;;3.80;99.90;;;;;;5066373;28;20495;-57
2023/11/13 02:25:25;;;;;;;3.92;2.10;;;3.70;99.90;;;;;;5067066;28;20044;-60
2023/11/13 02:27:53;;;;;;;3.83;2.22;;;3.80;99.90;;;;;;5068645;28;20756;-61
2023/11/13 02:30:20;;;;;;;4.60;2.70;;;3.80;99.90;;;;;;5068121;28;20079;-60
2023/11/13 02:32:49;;;;;;;5.28;2.33;;;3.90;99.90;;;;;;5065588;28;20040;-59
2023/11/13 02:35:18;;;;;;;4.72;2.50;;;3.80;99.90;;;;;;5070155;28;20829;-57
2023/11/13 02:37:44;;;;;;;4.65;2.75;;;3.90;99.90;;;;;;5069800;28;20059;-58
2023/11/13 02:40:10;;;;;;;2.72;2.28;;;3.90;99.90;;;;;;5070598;28;20040;-60
2023/11/13 02:42:40;;;;;;;4.72;2.40;;;3.90;99.90;;;;;;5066087;28;20083;-57
2023/11/13 02:45:08;;;;;;;5.32;2.47;;;3.90;99.90;;;;;;5070202;28;20384;-56
2023/11/13 02:47:34;;;;;;;4.43;2.55;;;4.00;99.90;;;;;;5070023;28;20048;-55
2023/11/13 02:50:00;;;;;;;4.22;2.58;;;4.00;99.90;;;;;;5075337;28;20170;-59
2023/11/13 02:52:26;;;;;;;7.15;3.47;;;4.00;99.90;;;;;;5062305;28;20127;-60
2023/11/13 02:54:52;;;;;;;6.68;3.10;;;4.10;99.90;;;;;;5067361;28;20421;-58
2023/11/13 02:57:21;;;;;;;6.07;3.50;;;4.10;99.90;;;;;;5068633;28;20128;-60
2023/11/13 02:59:47;;;;;;;3.80;3.00;;;4.10;99.90;;;;;;5068540;28;20519;-58
2023/11/13 03:02:14;;;;;;;8.60;4.07;;;4.10;99.90;;;;;;5066860;28;20032;-55
2023/11/13 03:04:39;;;;;;;8.75;5.40;;;4.10;99.90;;;;;;5073051;28;20123;-60
2023/11/13 03:07:05;;;;;;;9.63;4.97;;;4.10;99.90;;;;;;5071692;28;20055;-58
2023/11/13 03:09:30;;;;;;;12.13;5.22;;;4.10;99.90;;;;;;5072148;28;20119;-59
2023/11/13 03:11:57;;;;;;;8.27;4.97;;;4.10;99.90;;;;;;5068738;28;20044;-57
2023/11/13 03:14:23;;;;;;;10.32;5.80;;;4.00;99.90;;;;;;5072817;28;20048;-60
2023/11/13 03:16:48;;;;;;;10.07;5.50;;;4.00;99.90;;;;;;5068229;28;20062;-58
2023/11/13 03:19:14;;;;;;;10.48;5.53;;;4.00;99.90;;;;;;5071879;28;20119;-58
2023/11/13 03:21:40;;;;;;;10.40;5.60;;;4.00;99.90;;;;;;5069634;28;20519;-55
2023/11/13 03:24:06;;;;;;;11.32;5.93;;;4.00;99.90;;;;;;5070611;28;20037;-57
2023/11/13 03:26:31;;;;;;;9.10;5.82;;;4.00;99.90;;;;;;5070182;28;20040;-56
2023/11/13 03:28:57;;;;;;;8.20;5.03;;;4.00;99.90;;;;;;5071510;28;20044;-55
2023/11/13 03:31:23;;;;;;;8.32;5.38;;;4.00;99.90;;;;;;5070088;28;20049;-58
2023/11/13 03:33:48;;;;;;;8.85;5.60;;;4.10;99.90;;;;;;5071175;28;20586;-60
2023/11/13 03:36:17;;;;;;;9.43;5.75;;;4.10;99.90;;;;;;5071273;28;20043;-54
2023/11/13 03:38:43;;;;;;;11.48;5.30;;;4.10;99.90;;;;;;5070277;28;20449;-58
2023/11/13 03:41:08;;;;;;;9.65;6.00;;;4.10;99.90;;;;;;5069343;28;20047;-59
2023/11/13 03:43:35;;;;;;;8.35;5.32;;;4.10;99.90;;;;;;5066792;28;20032;-60
2023/11/13 03:46:02;;;;;;;8.85;4.80;;;4.10;99.90;;;;;;5069463;28;20101;-59
2023/11/13 03:48:28;;;;;;;9.98;4.60;;;4.10;99.90;;;;;;5066639;28;20046;-54
2023/11/13 03:50:54;;;;;;;7.45;4.57;;;4.10;99.90;;;;;;5069753;28;20570;-59
2023/11/13 03:53:19;;;;;;;5.63;4.00;;;4.10;99.90;;;;;;5066324;28;20033;-57
2023/11/13 03:55:45;;;;;;;8.07;3.95;;;4.10;99.90;;;;;;5069368;28;20044;-56
2023/11/13 03:58:12;;;;;;;6.32;3.90;;;4.10;99.90;;;;;;5067588;28;20043;-57
2023/11/13 04:00:39;;;;;;;6.50;3.85;;;4.20;99.90;;;;;;5065035;28;20052;-56
2023/11/13 04:03:04;;;;;;;5.95;3.67;;;4.20;99.90;;;;;;5070137;28;20075;-60
2023/11/13 04:05:30;;;;;;;7.65;3.90;;;4.10;99.90;;;;;;5067807;28;20060;-60
2023/11/13 04:07:57;;;;;;;7.20;3.97;;;4.10;99.90;;;;;;5067233;28;20578;-55
2023/11/13 04:10:22;;;;;;;8.00;4.93;;;4.10;99.90;;;;;;5064519;28;20127;-60
2023/11/13 04:12:48;;;;;;;6.82;4.38;;;4.10;99.90;;;;;;5068750;28;20115;-58
2023/11/13 04:15:14;;;;;;;6.22;4.20;;;4.20;99.90;;;;;;5068431;28;20044;-56
2023/11/13 04:17:44;;;;;;;6.93;4.70;;;4.20;99.90;;;;;;5064875;28;20143;-57
2023/11/13 04:20:13;;;;;;;8.98;5.10;;;4.20;99.90;;;;;;5065963;28;20049;-54
2023/11/13 04:22:41;;;;;;;7.10;4.63;;;4.20;99.90;;;;;;5063897;28;20072;-58
2023/11/13 04:25:07;;;;;;;6.40;4.13;;;4.20;99.90;;;;;;5064585;28;20036;-54
2023/11/13 04:27:33;;;;;;;7.40;4.43;;;4.30;99.90;;;;;;5064827;28;20051;-60
2023/11/13 04:29:59;;;;;;;7.13;4.47;;;4.30;99.90;;;;;;5066403;28;20036;-56
2023/11/13 04:32:25;;;;;;;5.75;4.05;;;4.20;99.90;;;;;;5066163;28;20634;-53
2023/11/13 04:34:51;;;;;;;6.10;4.13;;;4.20;99.90;;;;;;5068349;28;20056;-56
2023/11/13 04:37:17;;;;;;;5.75;3.63;;;4.20;99.90;;;;;;5067496;28;20063;-56
2023/11/13 04:39:43;;;;;;;7.50;4.25;;;4.30;99.90;;;;;;5067871;28;20036;-55
2023/11/13 04:42:11;;;;;;;7.30;4.28;;;4.30;99.90;;;;;;5069705;28;20055;-59
2023/11/13 04:44:37;;;;;;;7.00;4.70;;;4.30;99.90;;;;;;5067817;28;20051;-57
2023/11/13 04:47:03;;;;;;;8.48;5.25;;;4.30;99.90;;;;;;5071893;28;20044;-57
2023/11/13 04:49:29;;;;;;;6.95;4.45;;;4.20;99.90;;;;;;5070529;28;20040;-53
2023/11/13 04:51:55;;;;;;;9.43;5.38;;;4.30;99.90;;;;;;5069475;28;20044;-57
2023/11/13 04:54:21;;;;;;;10.18;5.05;;;4.30;99.90;;;;;;5067342;28;20110;-57
2023/11/13 04:56:46;;;;;;;8.80;5.63;;;4.20;99.90;;;;;;5066700;28;20528;-59
2023/11/13 04:59:12;;;;;;;12.02;5.95;;;4.20;99.90;;;;;;5068432;28;20439;-58
2023/11/13 05:01:39;;;;;;;8.38;5.00;;;4.20;99.90;;;;;;5066239;28;20040;-58
2023/11/13 05:04:09;;;;;;;13.02;5.40;;;4.20;99.90;;;;;;5072104;28;20055;-59
2023/11/13 05:06:35;;;;;;;9.82;5.70;;;4.20;99.90;;;;;;5067147;28;20075;-55
2023/11/13 05:09:03;;;;;;;9.32;5.65;;;4.20;99.90;;;;;;5071931;28;20040;-59
2023/11/13 05:11:29;;;;;;;7.60;4.40;;;4.20;99.90;;;;;;5066149;28;20041;-59
2023/11/13 05:13:55;;;;;;;8.30;4.32;;;4.20;99.90;;;;;;5070846;28;20044;-61
2023/11/13 05:16:25;;;;;;;7.50;4.18;;;4.20;99.90;;;;;;5067057;28;20508;-59
2023/11/13 05:18:51;;;;;;;8.23;3.92;;;4.20;99.90;;;;;;5069829;28;20045;-56
2023/11/13 05:21:18;;;;;;;5.20;3.90;;;4.20;99.90;;;;;;5067050;28;20078;-60
2023/11/13 05:23:44;;;;;;;6.28;3.80;;;4.30;99.90;;;;;;5068388;28;20492;-58
2023/11/13 05:26:10;;;;;;;4.82;3.15;;;4.30;99.90;;;;;;5058009;28;20049;-60
2023/11/13 05:28:35;;;;;;;5.57;3.47;;;4.30;99.90;;;;;;5067530;28;20044;-60
2023/11/13 05:31:02;;;;;;;6.18;3.70;;;4.40;99.90;;;;;;5067110;28;20036;-60
2023/11/13 05:33:28;;;;;;;5.50;3.40;;;4.40;99.90;;;;;;5066963;28;20639;-59
2023/11/13 05:35:53;;;;;;;7.15;3.75;;;4.50;99.90;;;;;;5067502;28;20045;-57
2023/11/13 05:38:19;;;;;;;4.88;3.25;;;4.50;99.90;;;;;;5064476;28;20603;-60
2023/11/13 05:40:45;;;;;;;4.25;3.05;;;4.50;99.90;;;;;;5067670;28;20515;-56
2023/11/13 05:43:11;;;;;;;6.38;2.92;;;4.50;99.90;;;;;;5069186;28;20642;-59
2023/11/13 05:45:37;;;;;;;3.58;2.60;;;4.50;99.90;;;;;;5067256;28;20036;-60
2023/11/13 05:48:04;;;;;;;3.45;2.40;;;4.60;99.90;;;;;;5070260;28;20035;-58
2023/11/13 05:50:29;;;;;;;3.47;2.60;;;4.60;99.90;;;;;;5067361;28;20045;-60
2023/11/13 05:52:55;;;;;;;4.18;2.13;;;4.60;99.90;;;;;;5067716;28;20434;-57
2023/11/13 05:55:24;;;;;;;3.03;1.90;;;4.60;99.90;;;;;;5071001;28;20141;-60
2023/11/13 05:57:53;;;;;;;3.35;2.00;;;4.60;99.90;;;;;;5061544;28;20477;-59
2023/11/13 06:00:20;;;;;;;2.35;2.03;;;4.60;99.90;;;;;;5070443;28;20120;-60
2023/11/13 06:02:46;;;;;;;2.97;2.15;;;4.60;99.90;;;;;;5068618;28;20044;-60
2023/11/13 06:05:13;;;;;;;3.47;2.20;;;4.70;99.90;;;;;;5072799;28;20036;-60
2023/11/13 06:07:39;;;;;;;4.00;2.50;;;4.70;99.90;;;;;;5061887;28;20048;-59
2023/11/13 06:10:07;;;;;;;5.43;2.58;;;4.70;99.90;;;;;;5065154;28;20045;-57
2023/11/13 06:12:38;;;;;;;3.10;2.22;;;4.70;99.90;;;;;;5062423;28;20113;-58
2023/11/13 06:15:10;;;;;;;2.58;1.77;;;4.70;99.90;;;;;;5065682;28;20032;-56
2023/11/13 06:17:37;;;;;;;5.82;2.20;;;4.70;99.90;;;;;;5064013;28;20075;-59
2023/11/13 06:20:02;;;;;;;5.18;1.83;;;4.80;99.90;;;;;;5068393;28;20503;-60
2023/11/13 06:22:28;;;;;;;2.88;1.98;;;4.80;99.90;;;;;;5065763;28;20127;-60
2023/11/13 06:24:54;;;;;;;2.58;1.98;;;4.80;99.90;;;;;;5067691;28;20040;-59
2023/11/13 06:27:20;;;;;;;2.22;1.67;;;4.80;99.90;;;;;;5063153;28;20067;-60
2023/11/13 06:29:45;;;;;;;4.97;1.95;;;4.80;99.90;;;;;;5067236;28;20477;-61
2023/11/13 06:32:11;;;;;;;2.40;1.75;;;4.80;99.90;;;;;;5064583;28;20605;-61
2023/11/13 06:34:37;;;;;;;2.83;1.85;;;4.80;99.90;;;;;;5065581;28;20047;-60
2023/11/13 06:37:02;;;;;;;2.28;1.42;;;4.80;99.90;;;;;;5065682;28;20040;-60
2023/11/13 06:39:28;;;;;;;2.60;1.63;;;4.80;99.90;;;;;;5066343;28;20036;-60
2023/11/13 06:41:54;;;;;;;3.08;1.60;;;4.80;99.90;;;;;;5065237;28;20105;-60
2023/11/13 06:44:19;;;;;;;6.35;1.58;;;4.90;99.90;;;;;;5063626;28;20149;-60
2023/11/13 06:46:46;;;;;;;4.00;1.63;;;4.90;99.90;;;;;;5065318;28;20420;-60
2023/11/13 06:49:12;;;;;;;2.25;1.20;;;4.80;99.90;;;;;;5071502;28;20564;-59
2023/11/13 06:51:37;;;;;;;3.13;2.00;;;4.90;99.90;;;;;;5072418;28;20195;-60
2023/11/13 06:54:03;;;;;;;4.97;1.27;;;4.90;99.90;;;;;;5070243;28;20043;-58
2023/11/13 06:56:32;;;;;;;2.65;1.77;;;4.90;99.90;;;;;;5061500;28;20048;-58
2023/11/13 06:58:59;;;;;;;2.65;1.70;;;4.90;99.90;;;;;;5065258;28;20124;-59
2023/11/13 07:01:25;;;;;;;4.38;1.48;;;4.90;99.90;;;;;;5063384;28;20049;-60
2023/11/13 07:03:51;;;;;;;2.08;1.38;;;4.90;99.90;;;;;;5065329;28;20452;-58
2023/11/13 07:06:17;;;;;;;1.25;0.93;;;4.90;99.90;;;;;;5065175;28;20119;-56
2023/11/13 07:08:43;;;;;;;2.25;1.42;;;4.90;99.90;;;;;;5065071;28;20032;-60
2023/11/13 07:11:10;;;;;;;1.98;1.30;;;4.90;99.90;;;;;;5069059;28;20043;-58
2023/11/13 07:13:39;;;;;;;2.15;1.27;;;4.90;99.90;;;;;;5064448;28;20508;-59
2023/11/13 07:16:07;;;;;;;1.48;1.05;;;4.90;99.90;;;;;;5061680;28;20492;-56
2023/11/13 07:18:33;;;;;;;1.20;0.93;;;4.90;99.90;;;;;;5065345;28;20189;-61
2023/11/13 07:21:01;;;;;;;2.08;1.10;;;5.00;99.90;;;;;;5076963;28;20384;-60
2023/11/13 07:23:28;;;;;;;4.85;1.08;;;5.00;99.90;;;;;;5073205;28;20054;-61
2023/11/13 07:25:55;;;;;;;0.73;0.60;;;5.00;99.90;;;;;;5070420;28;20060;-57
2023/11/13 07:28:21;;;;;;;1.67;0.70;;;5.00;99.90;;;;;;5067220;28;20037;-58
2023/11/13 07:30:47;;;;;;;2.50;0.40;;;5.00;99.90;;;;;;5075208;28;20130;-63
2023/11/13 07:33:13;;;;;;;7.65;1.20;;;5.10;99.90;;;;;;5074264;28;20665;-61
2023/11/13 07:35:40;;;;;;;0.80;0.73;;;5.10;99.90;;;;;;5070887;28;20042;-60
2023/11/13 07:38:07;;;;;;;2.80;0.60;;;5.10;99.90;;;;;;5062076;28;20050;-62
2023/11/13 07:40:33;;;;;;;0.75;0.50;;;5.20;99.90;;;;;;5075797;28;20126;-59
2023/11/13 07:42:59;;;;;;;0.80;0.40;;;5.20;99.90;;;;;;5066044;28;20074;-62
2023/11/13 07:45:25;;;;;;;3.10;0.47;;;5.20;99.90;;;;;;5074241;28;20044;-62
2023/11/13 07:47:51;;;;;;;1.42;0.47;;;5.30;99.90;;;;;;5072097;28;20036;-61
2023/11/13 07:50:17;;;;;;;1.60;0.50;;;5.30;99.90;;;;;;5070643;28;20044;-62
2023/11/13 07:52:44;;;;;;;1.52;0.50;;;5.30;99.90;;;;;;5069842;28;20103;-60
2023/11/13 07:55:12;;;;;;;2.25;0.60;;;5.30;99.90;;;;;;5068918;28;20106;-59
2023/11/13 07:57:38;;;;;;;2.47;0.82;;;5.40;99.90;;;;;;5068706;28;20037;-62
2023/11/13 08:00:09;;;;;;;2.35;1.05;;;5.40;99.90;;;;;;5077170;28;20369;-61
2023/11/13 08:02:37;;;;;;;1.13;0.57;;;5.50;99.90;;;;;;5067361;28;20070;-57
2023/11/13 08:05:03;;;;;;;2.65;0.90;;;5.50;99.90;;;;;;5070566;28;20044;-57
2023/11/13 08:07:29;;;;;;;3.28;0.90;;;5.50;99.90;;;;;;5070615;28;20040;-61
2023/11/13 08:09:55;;;;;;;4.85;1.30;;;5.60;99.90;;;;;;5068725;28;20039;-60
2023/11/13 08:12:20;;;;;;;4.15;1.25;;;5.60;99.90;;;;;;5087870;28;20036;-58
2023/11/13 08:14:49;;;;;;;4.70;1.45;;;5.70;99.90;;;;;;5067539;28;20486;-61
2023/11/13 08:17:14;;;;;;;4.43;1.58;;;5.70;99.90;;;;;;5069585;28;20351;-56
2023/11/13 08:19:41;;;;;;;8.25;1.13;;;5.80;99.90;;;;;;5069234;28;20048;-58
2023/11/13 08:22:07;;;;;;;9.20;1.67;;;5.90;99.90;;;;;;5051847;28;20496;-59
2023/11/13 08:24:32;;;;;;;9.93;1.55;;;5.90;99.90;;;;;;5068885;28;20074;-58
2023/11/13 08:26:59;;;;;;;9.05;1.67;;;6.00;99.90;;;;;;5069692;28;20062;-58
2023/11/13 08:29:26;;;;;;;4.47;1.67;;;6.00;99.90;;;;;;5068781;28;20132;-61
2023/11/13 08:31:52;;;;;;;7.05;1.90;;;6.10;99.90;;;;;;5065891;28;20778;-60
2023/11/13 08:34:19;;;;;;;5.47;2.08;;;6.20;99.90;;;;;;5069056;28;20045;-62
2023/11/13 08:36:45;;;;;;;6.97;1.90;;;6.20;99.90;;;;;;5068202;28;20048;-62
2023/11/13 08:39:10;;;;;;;5.07;1.55;;;6.30;99.90;;;;;;5066546;28;20051;-60
2023/11/13 08:41:36;;;;;;;8.38;1.75;;;6.30;99.90;;;;;;5073282;28;20036;-58
2023/11/13 08:44:03;;;;;;;6.80;1.80;;;6.40;99.90;;;;;;5073160;28;20687;-54
2023/11/13 08:46:30;;;;;;;11.82;1.80;;;6.50;99.90;;;;;;5070438;28;20131;-63
2023/11/13 08:48:56;;;;;;;9.07;1.63;;;6.50;99.90;;;;;;5066807;28;20045;-58
2023/11/13 08:51:28;;;;;;;8.15;1.70;;;6.50;99.90;;;;;;5084672;28;20036;-60
2023/11/13 08:53:54;;;;;;;3.83;1.35;;;6.60;99.90;;;;;;5065430;28;20609;-60
2023/11/13 08:56:21;;;;;;;3.67;1.30;;;6.60;99.90;;;;;;5063120;28;20044;-60
2023/11/13 08:58:47;;;;;;;7.25;1.23;;;6.50;99.90;;;;;;5067547;28;20063;-60
2023/11/13 09:01:15;;;;;;;6.55;1.38;;;6.60;99.90;;;;;;5067491;28;20170;-61
2023/11/13 09:03:43;;;;;;;2.95;1.23;;;6.60;99.90;;;;;;5062671;28;20045;-61
2023/11/13 09:06:09;;;;;;;4.63;1.05;;;6.60;99.90;;;;;;5066500;28;20045;-55
2023/11/13 09:08:36;;;;;;;3.83;0.90;;;6.70;99.90;;;;;;5065979;28;20300;-58
2023/11/13 09:11:04;;;;;;;5.35;1.10;;;6.80;99.90;;;;;;5066417;28;20029;-56
2023/11/13 09:13:29;;;;;;;3.63;0.93;;;6.80;99.90;;;;;;5068897;28;20484;-61
2023/11/13 09:15:55;;;;;;;1.50;0.85;;;6.90;99.90;;;;;;5071632;28;20527;-59
2023/11/13 09:18:26;;;;;;;4.00;0.70;;;6.90;99.90;;;;;;5064888;28;20040;-62
2023/11/13 09:20:54;;;;;;;1.50;0.80;;;7.00;99.90;;;;;;5072127;28;20047;-60
2023/11/13 09:23:21;;;;;;;1.60;0.60;;;7.00;99.90;;;;;;5071333;28;20035;-57
2023/11/13 09:25:46;;;;;;;2.50;0.55;;;7.00;99.90;;;;;;5068164;28;20040;-61
2023/11/13 09:28:12;;;;;;;1.83;0.40;;;7.10;99.90;;;;;;5076286;28;20038;-57
2023/11/13 09:30:39;;;;;;;;;;;7.10;99.90;;;;;;5072387;28;20036;-60
2023/11/13 09:33:08;;;;;;;2.20;0.43;;;7.10;99.90;;;;;;5076118;28;20037;-61
2023/11/13 09:35:36;;;;;;;2.85;0.40;;;7.10;99.90;;;;;;5073510;28;20122;-60
2023/11/13 09:38:02;;;;;;;1.60;0.55;;;7.20;99.90;;;;;;5076043;28;20052;-59
2023/11/13 09:40:31;;;;;;;1.15;0.50;;;7.10;99.90;;;;;;5069490;28;20033;-59
2023/11/13 09:43:12;;;;;;;4.53;1.00;;;7.20;99.90;;;;;;5066894;28;20046;-60
2023/11/13 09:45:44;;;;;;;2.13;0.57;;;7.20;99.90;;;;;;5071917;28;20922;-62
2023/11/13 09:48:14;;;;;;;4.60;0.68;;;7.20;99.90;;;;;;5069179;28;20052;-63
2023/11/13 09:50:40;;;;;;;2.92;0.40;;;7.20;99.90;;;;;;5073059;28;20460;-62
2023/11/13 09:53:08;;;;;;;2.25;0.50;;;7.20;99.90;;;;;;5069654;28;20062;-63
2023/11/13 09:55:35;;;;;;;0.75;0.40;;;7.20;99.90;;;;;;5071031;28;20036;-62
2023/11/13 09:58:01;;;;;;;1.90;0.60;;;7.20;99.90;;;;;;5067837;28;20036;-63
2023/11/13 10:00:30;;;;;;;15.20;2.83;;;7.20;99.90;;;;;;5066308;28;20079;-63
2023/11/13 10:02:56;;;;;;;1.23;0.45;;;7.20;99.90;;;;;;5067652;28;20178;-61
2023/11/13 10:05:30;;;;;;;1.55;0.70;;;7.20;99.90;;;;;;5067023;28;20127;-63
2023/11/13 10:07:57;;;;;;;2.83;0.50;;;7.30;99.90;;;;;;5063287;28;20112;-60
2023/11/13 10:10:26;;;;;;;2.20;0.70;;;7.20;99.90;;;;;;5066400;28;20079;-61
2023/11/13 10:13:04;;;;;;;2.40;0.47;;;7.30;99.90;;;;;;5065927;28;20040;-61
2023/11/13 10:15:36;;;;;;;4.20;0.60;;;7.30;99.90;;;;;;5068097;28;20052;-61
2023/11/13 10:18:01;;;;;;;3.33;0.73;;;7.30;99.90;;;;;;5069424;28;20053;-62
2023/11/13 10:20:28;;;;;;;2.15;0.80;;;7.30;99.90;;;;;;5069599;28;20040;-63
2023/11/13 10:23:06;;;;;;;3.42;0.65;;;7.30;99.90;;;;;;5068005;28;20040;-62
2023/11/13 10:25:50;;;;;;;4.40;0.70;;;7.30;99.90;;;;;;5064330;28;20055;-63
2023/11/13 10:28:21;;;;;;;1.85;0.52;;;7.30;99.90;;;;;;5067008;28;20032;-61
2023/11/13 10:31:12;;;;;;;7.40;1.30;;;7.30;99.90;;;;;;5071388;28;20132;-61
2023/11/13 10:33:39;;;;;;;0.82;0.40;;;7.30;99.90;;;;;;5069080;28;20123;-61
2023/11/13 10:36:17;;;;;;;0.82;0.55;;;7.30;99.90;;;;;;5066471;28;20072;-60
2023/11/13 10:38:47;;;;;;;2.05;0.50;;;7.30;99.90;;;;;;5073086;28;20090;-60
2023/11/13 10:41:19;;;;;;;1.20;0.40;;;7.30;99.90;;;;;;5071348;28;20040;-62
2023/11/13 10:43:45;;;;;;;1.48;0.40;;;7.30;99.90;;;;;;5072687;28;20052;-62
2023/11/13 10:46:25;;;;;;;0.88;0.30;;;7.30;99.90;;;;;;5070868;28;20044;-61
2023/11/13 10:48:51;;;;;;;1.63;0.32;;;7.30;99.90;;;;;;5073138;28;20036;-62
2023/11/13 10:51:18;;;;;;;1.85;0.30;;;7.30;99.90;;;;;;5066209;28;20036;-61
2023/11/13 10:53:46;;;;;;;0.77;0.35;;;7.40;99.90;;;;;;5075267;28;20048;-63
2023/11/13 10:56:13;;;;;;;1.42;0.28;;;7.40;99.90;;;;;;5072801;28;20113;-61
2023/11/13 10:58:40;;;;;;;0.20;0.20;;;7.40;99.90;;;;;;5074262;28;20150;-60
2023/11/13 11:01:13;;;;;;;6.28;1.05;;;7.50;99.90;;;;;;5066387;28;20459;-61
2023/11/13 11:03:43;;;;;;;1.42;0.40;;;7.50;99.90;;;;;;5066946;28;20629;-62
2023/11/13 11:06:14;;;;;;;0.40;0.20;;;7.60;99.90;;;;;;5068643;28;20419;-61
2023/11/13 11:08:43;;;;;;;3.97;0.47;;;7.60;99.90;;;;;;5066562;28;20087;-61
2023/11/13 11:11:10;;;;;;;1.38;0.52;;;7.60;99.90;;;;;;5059995;28;20052;-63
2023/11/13 11:13:39;;;;;;;1.02;0.50;;;7.60;99.90;;;;;;5057150;28;20961;-61
2023/11/13 11:16:14;;;;;;;1.75;0.43;;;7.60;99.90;;;;;;5062627;28;20095;-61
2023/11/13 11:19:10;;;;;;;1.77;0.40;;;7.60;99.90;;;;;;5060898;28;20161;-61
2023/11/13 11:21:50;;;;;;;1.30;0.32;;;7.70;99.90;;;;;;5058375;28;20048;-63
2023/11/13 11:24:35;;;;;;;2.85;0.80;;;7.60;99.90;;;;;;5068334;28;20029;-61
2023/11/13 11:27:01;;;;;;;1.75;0.65;;;7.60;99.90;;;;;;5070476;28;20123;-61
2023/11/13 11:29:33;;;;;;;1.42;0.50;;;7.60;99.90;;;;;;5070079;28;20124;-60
2023/11/13 11:32:13;;;;;;;1.35;0.50;;;7.60;99.90;;;;;;5042577;28;20049;-60
2023/11/13 11:34:42;;;;;;;1.13;0.20;;;7.50;99.90;;;;;;5048388;28;20044;-62
2023/11/13 11:37:15;;;;;;;0.95;0.45;;;7.60;99.90;;;;;;5039669;28;20445;-56
2023/11/13 11:39:50;;;;;;;2.35;0.40;;;7.60;99.90;;;;;;5046517;28;20048;-58
2023/11/13 11:42:22;;;;;;;1.10;0.40;;;7.60;99.90;;;;;;5042312;28;20120;-57
2023/11/13 11:44:53;;;;;;;1.02;0.43;;;7.60;99.90;;;;;;5053355;28;20594;-60
2023/11/13 11:47:27;;;;;;;1.83;0.30;;;7.70;99.90;;;;;;5052283;28;20048;-60
2023/11/13 11:49:54;;;;;;;1.83;0.30;;;7.70;99.90;;;;;;5045738;28;20092;-59
2023/11/13 11:52:42;;;;;;;0.25;0.20;;;7.80;99.90;;;;;;5044191;28;20033;-61
2023/11/13 11:55:12;;;;;;;1.65;0.40;;;7.80;99.90;;;;;;5051979;28;20079;-58
2023/11/13 11:57:45;;;;;;;0.93;0.22;;;7.80;99.90;;;;;;5045627;28;20056;-58
2023/11/13 12:00:19;;;;;;;0.85;0.40;;;7.80;99.90;;;;;;5051129;28;20045;-55
2023/11/13 12:02:51;;;;;;;0.65;0.30;;;7.80;99.90;;;;;;5067448;28;20067;-61
2023/11/13 12:05:17;;;;;;;2.25;0.50;;;7.80;99.90;;;;;;5068059;28;20083;-59
2023/11/13 12:07:43;;;;;;;1.63;0.60;;;7.80;99.90;;;;;;5065145;28;20049;-58
2023/11/13 12:10:09;;;;;;;;;;;7.80;99.90;;;;;;5067193;28;20117;-58
2023/11/13 12:12:37;;;;;;;1.23;0.45;;;7.90;99.90;;;;;;5059101;28;20421;-59
2023/11/13 12:15:09;;;;;;;1.70;0.70;;;7.90;99.90;;;;;;5070166;28;20074;-60
2023/11/13 12:17:37;;;;;;;0.82;0.57;;;7.90;99.90;;;;;;5049727;28;20043;-61
2023/11/13 12:20:06;;;;;;;0.68;0.32;;;8.00;99.90;;;;;;5072807;28;20567;-57
2023/11/13 12:22:34;;;;;;;1.85;0.40;;;8.00;99.90;;;;;;5067255;28;20078;-61
2023/11/13 12:25:03;;;;;;;0.70;0.30;;;8.00;99.90;;;;;;5069691;28;20666;-58
2023/11/13 12:27:34;;;;;;;0.38;0.30;;;8.00;99.90;;;;;;5067736;28;20036;-59
2023/11/13 12:30:16;;;;;;;2.15;0.35;;;8.00;99.90;;;;;;5068705;28;20119;-60
2023/11/13 12:32:45;;;;;;;4.38;0.60;;;8.00;99.90;;;;;;5066348;28;20045;-61
2023/11/13 12:35:12;;;;;;;1.10;0.45;;;8.10;99.90;;;;;;5070035;28;20412;-58
2023/11/13 12:37:41;;;;;;;1.02;0.50;;;8.10;99.90;;;;;;5068367;28;20032;-58
2023/11/13 12:40:08;;;;;;;0.63;0.45;;;8.10;99.90;;;;;;5066566;28;20539;-60
2023/11/13 12:42:33;;;;;;;1.38;0.60;;;8.10;99.90;;;;;;5066349;28;20060;-57
2023/11/13 12:44:59;;;;;;;;;;;8.10;99.90;;;;;;5074791;28;20064;-58
2023/11/13 12:47:27;;;;;;;1.95;0.40;;;8.10;99.90;;;;;;5069323;28;19928;-58
2023/11/13 12:49:52;;;;;;;0.68;0.40;;;8.10;99.90;;;;;;5069987;28;20036;-59
2023/11/13 12:52:18;;;;;;;;;;;8.10;99.90;;;;;;5070242;28;20032;-62
2023/11/13 12:54:48;;;;;;;2.53;0.70;;;8.10;99.90;;;;;;5071531;28;19923;-61
2023/11/13 12:57:18;;;;;;;2.67;0.60;;;8.20;99.90;;;;;;5068135;28;20079;-62
2023/11/13 12:59:45;;;;;;;1.85;0.68;;;8.20;99.90;;;;;;5069566;28;20040;-52